sensor_id;sensor_type;location;lat;lon;timestamp;P1;durP1;ratioP1;P2;durP2;ratioP2
40152;SDS011;26371;56.992;23.912;2023-06-14T00:01:22;5.50;;;3.25;;
40152;SDS011;26371;56.992;23.912;2023-06-14T00:06:20;6.65;;;3.40;;
40152;SDS011;26371;56.992;23.912;2023-06-14T00:08:51;9.25;;;3.45;;
40152;SDS011;26371;56.992;23.912;2023-06-14T00:11:20;6.82;;;4.00;;
40152;SDS011;26371;56.992;23.912;2023-06-14T00:13:51;5.60;;;3.60;;
40152;SDS011;26371;56.992;23.912;2023-06-14T00:16:19;9.10;;;3.97;;
40152;SDS011;26371;56.992;23.912;2023-06-14T00:18:49;7.30;;;4.20;;
40152;SDS011;26371;56.992;23.912;2023-06-14T00:21:19;7.35;;;3.67;;
40152;SDS011;26371;56.992;23.912;2023-06-14T00:23:48;10.05;;;5.10;;
40152;SDS011;26371;56.992;23.912;2023-06-14T00:28:46;8.45;;;3.90;;
40152;SDS011;26371;56.992;23.912;2023-06-14T00:31:16;6.55;;;3.78;;
40152;SDS011;26371;56.992;23.912;2023-06-14T00:33:46;6.70;;;4.22;;
40152;SDS011;26371;56.992;23.912;2023-06-14T00:36:15;7.07;;;3.88;;
40152;SDS011;26371;56.992;23.912;2023-06-14T00:38:43;9.98;;;4.10;;
40152;SDS011;26371;56.992;23.912;2023-06-14T00:41:12;7.78;;;4.00;;
40152;SDS011;26371;56.992;23.912;2023-06-14T00:43:41;9.55;;;4.35;;
40152;SDS011;26371;56.992;23.912;2023-06-14T00:46:10;10.13;;;4.22;;
40152;SDS011;26371;56.992;23.912;2023-06-14T00:48:40;8.05;;;4.70;;
40152;SDS011;26371;56.992;23.912;2023-06-14T00:51:10;10.50;;;4.75;;
40152;SDS011;26371;56.992;23.912;2023-06-14T00:53:39;7.80;;;4.68;;
40152;SDS011;26371;56.992;23.912;2023-06-14T00:56:12;8.15;;;4.10;;
40152;SDS011;26371;56.992;23.912;2023-06-14T00:58:41;8.13;;;4.15;;
40152;SDS011;26371;56.992;23.912;2023-06-14T01:01:10;7.03;;;3.83;;
40152;SDS011;26371;56.992;23.912;2023-06-14T01:03:42;7.03;;;4.03;;
40152;SDS011;26371;56.992;23.912;2023-06-14T01:06:14;8.85;;;5.00;;
40152;SDS011;26371;56.992;23.912;2023-06-14T01:08:57;8.30;;;4.20;;
40152;SDS011;26371;56.992;23.912;2023-06-14T01:11:31;11.65;;;5.15;;
40152;SDS011;26371;56.992;23.912;2023-06-14T01:14:01;8.05;;;4.95;;
40152;SDS011;26371;56.992;23.912;2023-06-14T01:16:30;8.70;;;4.15;;
40152;SDS011;26371;56.992;23.912;2023-06-14T01:19:04;6.88;;;4.00;;
40152;SDS011;26371;56.992;23.912;2023-06-14T01:21:33;10.25;;;4.00;;
40152;SDS011;26371;56.992;23.912;2023-06-14T01:24:10;10.23;;;4.75;;
40152;SDS011;26371;56.992;23.912;2023-06-14T01:26:39;7.80;;;4.45;;
40152;SDS011;26371;56.992;23.912;2023-06-14T01:29:13;10.40;;;4.75;;
40152;SDS011;26371;56.992;23.912;2023-06-14T01:31:44;8.60;;;4.50;;
40152;SDS011;26371;56.992;23.912;2023-06-14T01:34:14;9.23;;;4.78;;
40152;SDS011;26371;56.992;23.912;2023-06-14T01:37:10;7.68;;;4.72;;
40152;SDS011;26371;56.992;23.912;2023-06-14T01:40:05;9.68;;;4.97;;
40152;SDS011;26371;56.992;23.912;2023-06-14T01:42:54;8.02;;;4.90;;
40152;SDS011;26371;56.992;23.912;2023-06-14T01:45:54;8.30;;;4.53;;
40152;SDS011;26371;56.992;23.912;2023-06-14T01:48:44;8.88;;;4.20;;
40152;SDS011;26371;56.992;23.912;2023-06-14T01:51:33;12.05;;;5.22;;
40152;SDS011;26371;56.992;23.912;2023-06-14T01:54:02;11.25;;;5.80;;
40152;SDS011;26371;56.992;23.912;2023-06-14T01:56:32;10.38;;;5.75;;
40152;SDS011;26371;56.992;23.912;2023-06-14T01:59:01;11.73;;;5.90;;
40152;SDS011;26371;56.992;23.912;2023-06-14T02:01:30;8.40;;;4.90;;
40152;SDS011;26371;56.992;23.912;2023-06-14T02:04:01;10.25;;;4.93;;
40152;SDS011;26371;56.992;23.912;2023-06-14T02:06:30;9.68;;;5.68;;
40152;SDS011;26371;56.992;23.912;2023-06-14T02:09:01;12.02;;;5.50;;
40152;SDS011;26371;56.992;23.912;2023-06-14T02:11:30;8.90;;;4.97;;
40152;SDS011;26371;56.992;23.912;2023-06-14T02:14:00;12.95;;;6.30;;
40152;SDS011;26371;56.992;23.912;2023-06-14T02:16:29;16.10;;;8.90;;
40152;SDS011;26371;56.992;23.912;2023-06-14T02:19:02;19.33;;;11.48;;
40152;SDS011;26371;56.992;23.912;2023-06-14T02:21:31;19.10;;;10.77;;
40152;SDS011;26371;56.992;23.912;2023-06-14T02:24:00;18.70;;;10.02;;
40152;SDS011;26371;56.992;23.912;2023-06-14T02:26:30;14.82;;;8.82;;
40152;SDS011;26371;56.992;23.912;2023-06-14T02:29:00;13.77;;;8.35;;
40152;SDS011;26371;56.992;23.912;2023-06-14T02:31:30;16.98;;;9.80;;
40152;SDS011;26371;56.992;23.912;2023-06-14T02:33:59;17.58;;;10.57;;
40152;SDS011;26371;56.992;23.912;2023-06-14T02:36:28;23.75;;;12.10;;
40152;SDS011;26371;56.992;23.912;2023-06-14T02:39:00;17.10;;;11.07;;
40152;SDS011;26371;56.992;23.912;2023-06-14T02:41:32;17.35;;;11.15;;
40152;SDS011;26371;56.992;23.912;2023-06-14T02:44:12;19.65;;;11.75;;
40152;SDS011;26371;56.992;23.912;2023-06-14T02:46:49;19.45;;;12.57;;
40152;SDS011;26371;56.992;23.912;2023-06-14T02:49:19;19.58;;;11.63;;
40152;SDS011;26371;56.992;23.912;2023-06-14T02:51:57;20.23;;;12.35;;
40152;SDS011;26371;56.992;23.912;2023-06-14T02:54:26;21.67;;;11.77;;
40152;SDS011;26371;56.992;23.912;2023-06-14T02:56:55;19.30;;;10.63;;
40152;SDS011;26371;56.992;23.912;2023-06-14T02:59:25;19.25;;;11.90;;
40152;SDS011;26371;56.992;23.912;2023-06-14T03:01:55;22.95;;;11.55;;
40152;SDS011;26371;56.992;23.912;2023-06-14T03:04:24;15.63;;;9.70;;
40152;SDS011;26371;56.992;23.912;2023-06-14T03:06:53;17.02;;;10.23;;
40152;SDS011;26371;56.992;23.912;2023-06-14T03:09:23;16.10;;;9.40;;
40152;SDS011;26371;56.992;23.912;2023-06-14T03:11:52;19.30;;;10.15;;
40152;SDS011;26371;56.992;23.912;2023-06-14T03:14:21;15.70;;;9.38;;
40152;SDS011;26371;56.992;23.912;2023-06-14T03:16:51;17.65;;;9.98;;
40152;SDS011;26371;56.992;23.912;2023-06-14T03:19:23;14.45;;;9.02;;
40152;SDS011;26371;56.992;23.912;2023-06-14T03:21:53;17.10;;;8.77;;
40152;SDS011;26371;56.992;23.912;2023-06-14T03:24:26;17.17;;;10.63;;
40152;SDS011;26371;56.992;23.912;2023-06-14T03:26:57;14.93;;;8.73;;
40152;SDS011;26371;56.992;23.912;2023-06-14T03:29:28;13.95;;;8.13;;
40152;SDS011;26371;56.992;23.912;2023-06-14T03:32:00;18.90;;;8.23;;
40152;SDS011;26371;56.992;23.912;2023-06-14T03:34:37;13.18;;;7.35;;
40152;SDS011;26371;56.992;23.912;2023-06-14T03:37:14;13.85;;;6.47;;
40152;SDS011;26371;56.992;23.912;2023-06-14T03:39:44;12.98;;;7.30;;
40152;SDS011;26371;56.992;23.912;2023-06-14T03:42:24;10.10;;;6.00;;
40152;SDS011;26371;56.992;23.912;2023-06-14T03:44:54;12.13;;;7.32;;
40152;SDS011;26371;56.992;23.912;2023-06-14T03:47:24;10.82;;;7.03;;
40152;SDS011;26371;56.992;23.912;2023-06-14T03:49:55;11.23;;;6.32;;
40152;SDS011;26371;56.992;23.912;2023-06-14T03:52:23;12.20;;;6.93;;
40152;SDS011;26371;56.992;23.912;2023-06-14T03:54:54;11.57;;;6.63;;
40152;SDS011;26371;56.992;23.912;2023-06-14T03:57:43;11.65;;;6.20;;
40152;SDS011;26371;56.992;23.912;2023-06-14T04:00:16;9.50;;;6.43;;
40152;SDS011;26371;56.992;23.912;2023-06-14T04:02:46;12.13;;;6.32;;
40152;SDS011;26371;56.992;23.912;2023-06-14T04:05:15;10.18;;;5.97;;
40152;SDS011;26371;56.992;23.912;2023-06-14T04:07:49;8.68;;;5.13;;
40152;SDS011;26371;56.992;23.912;2023-06-14T04:10:18;14.68;;;5.43;;
40152;SDS011;26371;56.992;23.912;2023-06-14T04:12:49;10.70;;;5.05;;
40152;SDS011;26371;56.992;23.912;2023-06-14T04:15:21;11.60;;;4.38;;
40152;SDS011;26371;56.992;23.912;2023-06-14T04:17:57;8.57;;;4.05;;
40152;SDS011;26371;56.992;23.912;2023-06-14T04:20:28;8.93;;;4.40;;
40152;SDS011;26371;56.992;23.912;2023-06-14T04:23:10;12.00;;;4.45;;
40152;SDS011;26371;56.992;23.912;2023-06-14T04:25:40;12.50;;;4.25;;
40152;SDS011;26371;56.992;23.912;2023-06-14T04:28:11;9.95;;;4.20;;
40152;SDS011;26371;56.992;23.912;2023-06-14T04:30:42;11.05;;;4.22;;
40152;SDS011;26371;56.992;23.912;2023-06-14T04:33:15;11.13;;;4.65;;
40152;SDS011;26371;56.992;23.912;2023-06-14T04:35:45;8.82;;;3.97;;
40152;SDS011;26371;56.992;23.912;2023-06-14T04:38:18;9.63;;;4.20;;
40152;SDS011;26371;56.992;23.912;2023-06-14T04:40:54;13.68;;;4.35;;
40152;SDS011;26371;56.992;23.912;2023-06-14T04:43:23;7.80;;;3.55;;
40152;SDS011;26371;56.992;23.912;2023-06-14T04:45:55;11.30;;;4.03;;
40152;SDS011;26371;56.992;23.912;2023-06-14T04:48:26;12.20;;;3.53;;
40152;SDS011;26371;56.992;23.912;2023-06-14T04:50:58;9.35;;;3.97;;
40152;SDS011;26371;56.992;23.912;2023-06-14T04:53:27;12.35;;;4.00;;
40152;SDS011;26371;56.992;23.912;2023-06-14T05:00:54;11.38;;;3.63;;
40152;SDS011;26371;56.992;23.912;2023-06-14T05:03:23;11.43;;;3.85;;
40152;SDS011;26371;56.992;23.912;2023-06-14T05:05:53;8.35;;;3.90;;
40152;SDS011;26371;56.992;23.912;2023-06-14T05:08:22;7.68;;;3.78;;
40152;SDS011;26371;56.992;23.912;2023-06-14T05:10:52;7.22;;;3.72;;
40152;SDS011;26371;56.992;23.912;2023-06-14T05:13:23;9.45;;;3.70;;
40152;SDS011;26371;56.992;23.912;2023-06-14T05:15:55;8.70;;;3.78;;
40152;SDS011;26371;56.992;23.912;2023-06-14T05:18:24;13.63;;;4.05;;
40152;SDS011;26371;56.992;23.912;2023-06-14T05:20:54;10.57;;;3.95;;
40152;SDS011;26371;56.992;23.912;2023-06-14T05:23:26;7.90;;;4.13;;
40152;SDS011;26371;56.992;23.912;2023-06-14T05:25:54;11.35;;;3.58;;
40152;SDS011;26371;56.992;23.912;2023-06-14T05:28:23;8.57;;;3.78;;
40152;SDS011;26371;56.992;23.912;2023-06-14T05:30:52;9.57;;;4.10;;
40152;SDS011;26371;56.992;23.912;2023-06-14T05:33:22;10.23;;;4.30;;
40152;SDS011;26371;56.992;23.912;2023-06-14T05:35:51;9.13;;;3.30;;
40152;SDS011;26371;56.992;23.912;2023-06-14T05:38:21;12.20;;;3.40;;
40152;SDS011;26371;56.992;23.912;2023-06-14T05:40:50;5.57;;;2.80;;
40152;SDS011;26371;56.992;23.912;2023-06-14T05:43:18;7.60;;;3.20;;
40152;SDS011;26371;56.992;23.912;2023-06-14T05:45:49;8.27;;;3.45;;
40152;SDS011;26371;56.992;23.912;2023-06-14T05:48:18;9.15;;;3.30;;
40152;SDS011;26371;56.992;23.912;2023-06-14T05:50:47;8.55;;;3.28;;
40152;SDS011;26371;56.992;23.912;2023-06-14T05:53:16;7.13;;;3.45;;
40152;SDS011;26371;56.992;23.912;2023-06-14T05:55:46;7.47;;;3.10;;
40152;SDS011;26371;56.992;23.912;2023-06-14T05:58:15;10.70;;;3.50;;
40152;SDS011;26371;56.992;23.912;2023-06-14T06:00:45;6.35;;;2.78;;
40152;SDS011;26371;56.992;23.912;2023-06-14T06:03:14;11.30;;;3.35;;
40152;SDS011;26371;56.992;23.912;2023-06-14T06:05:43;7.07;;;2.83;;
40152;SDS011;26371;56.992;23.912;2023-06-14T06:08:12;11.32;;;2.88;;
40152;SDS011;26371;56.992;23.912;2023-06-14T06:15:39;8.57;;;2.97;;
40152;SDS011;26371;56.992;23.912;2023-06-14T06:18:08;7.00;;;2.60;;
40152;SDS011;26371;56.992;23.912;2023-06-14T06:20:37;8.48;;;2.80;;
40152;SDS011;26371;56.992;23.912;2023-06-14T06:23:05;10.57;;;2.85;;
40152;SDS011;26371;56.992;23.912;2023-06-14T06:25:34;10.73;;;3.22;;
40152;SDS011;26371;56.992;23.912;2023-06-14T06:30:33;8.95;;;3.83;;
40152;SDS011;26371;56.992;23.912;2023-06-14T06:33:02;10.90;;;3.00;;
40152;SDS011;26371;56.992;23.912;2023-06-14T06:35:31;10.23;;;2.97;;
40152;SDS011;26371;56.992;23.912;2023-06-14T06:38:00;8.98;;;3.22;;
40152;SDS011;26371;56.992;23.912;2023-06-14T06:40:28;6.47;;;2.70;;
40152;SDS011;26371;56.992;23.912;2023-06-14T06:42:57;6.28;;;3.13;;
40152;SDS011;26371;56.992;23.912;2023-06-14T06:45:26;8.75;;;2.92;;
40152;SDS011;26371;56.992;23.912;2023-06-14T06:47:56;7.63;;;2.95;;
40152;SDS011;26371;56.992;23.912;2023-06-14T06:50:25;5.68;;;2.70;;
40152;SDS011;26371;56.992;23.912;2023-06-14T06:52:55;7.13;;;2.88;;
40152;SDS011;26371;56.992;23.912;2023-06-14T06:55:23;8.77;;;2.65;;
40152;SDS011;26371;56.992;23.912;2023-06-14T06:57:52;7.05;;;2.28;;
40152;SDS011;26371;56.992;23.912;2023-06-14T07:02:52;4.93;;;2.40;;
40152;SDS011;26371;56.992;23.912;2023-06-14T07:05:23;5.38;;;2.15;;
40152;SDS011;26371;56.992;23.912;2023-06-14T07:07:52;6.93;;;2.63;;
40152;SDS011;26371;56.992;23.912;2023-06-14T07:10:23;5.70;;;2.22;;
40152;SDS011;26371;56.992;23.912;2023-06-14T07:15:21;6.22;;;2.45;;
40152;SDS011;26371;56.992;23.912;2023-06-14T07:17:49;5.47;;;2.38;;
40152;SDS011;26371;56.992;23.912;2023-06-14T07:20:20;5.97;;;2.20;;
40152;SDS011;26371;56.992;23.912;2023-06-14T07:22:52;5.50;;;2.40;;
40152;SDS011;26371;56.992;23.912;2023-06-14T07:25:22;5.13;;;2.47;;
40152;SDS011;26371;56.992;23.912;2023-06-14T07:27:53;5.43;;;2.70;;
40152;SDS011;26371;56.992;23.912;2023-06-14T07:30:22;6.85;;;2.63;;
40152;SDS011;26371;56.992;23.912;2023-06-14T07:32:53;5.47;;;2.40;;
40152;SDS011;26371;56.992;23.912;2023-06-14T07:35:22;8.23;;;2.58;;
40152;SDS011;26371;56.992;23.912;2023-06-14T07:37:50;8.63;;;2.38;;
40152;SDS011;26371;56.992;23.912;2023-06-14T07:40:21;5.97;;;2.47;;
40152;SDS011;26371;56.992;23.912;2023-06-14T07:45:18;8.45;;;2.53;;
40152;SDS011;26371;56.992;23.912;2023-06-14T07:47:46;5.80;;;2.63;;
40152;SDS011;26371;56.992;23.912;2023-06-14T07:50:15;7.93;;;2.70;;
40152;SDS011;26371;56.992;23.912;2023-06-14T07:55:15;4.07;;;2.28;;
40152;SDS011;26371;56.992;23.912;2023-06-14T07:57:44;6.80;;;2.78;;
40152;SDS011;26371;56.992;23.912;2023-06-14T08:00:13;6.97;;;2.22;;
40152;SDS011;26371;56.992;23.912;2023-06-14T08:02:44;5.80;;;2.65;;
40152;SDS011;26371;56.992;23.912;2023-06-14T08:05:14;6.45;;;2.53;;
40152;SDS011;26371;56.992;23.912;2023-06-14T08:07:43;6.57;;;2.85;;
40152;SDS011;26371;56.992;23.912;2023-06-14T08:10:12;24.63;;;3.88;;
40152;SDS011;26371;56.992;23.912;2023-06-14T08:12:42;6.72;;;2.45;;
40152;SDS011;26371;56.992;23.912;2023-06-14T08:15:11;7.43;;;3.60;;
40152;SDS011;26371;56.992;23.912;2023-06-14T08:17:42;6.43;;;2.33;;
40152;SDS011;26371;56.992;23.912;2023-06-14T08:20:11;5.60;;;2.25;;
40152;SDS011;26371;56.992;23.912;2023-06-14T08:22:43;5.88;;;2.20;;
40152;SDS011;26371;56.992;23.912;2023-06-14T08:25:15;4.20;;;2.10;;
40152;SDS011;26371;56.992;23.912;2023-06-14T08:27:45;5.57;;;2.40;;
40152;SDS011;26371;56.992;23.912;2023-06-14T08:30:16;6.65;;;2.40;;
40152;SDS011;26371;56.992;23.912;2023-06-14T08:32:45;4.78;;;2.30;;
40152;SDS011;26371;56.992;23.912;2023-06-14T08:37:52;6.22;;;2.22;;
40152;SDS011;26371;56.992;23.912;2023-06-14T08:40:22;6.45;;;2.30;;
40152;SDS011;26371;56.992;23.912;2023-06-14T08:42:53;7.45;;;2.65;;
40152;SDS011;26371;56.992;23.912;2023-06-14T08:45:23;6.50;;;2.53;;
40152;SDS011;26371;56.992;23.912;2023-06-14T08:47:55;5.80;;;2.60;;
40152;SDS011;26371;56.992;23.912;2023-06-14T08:50:29;6.60;;;2.47;;
40152;SDS011;26371;56.992;23.912;2023-06-14T08:53:02;6.55;;;2.78;;
40152;SDS011;26371;56.992;23.912;2023-06-14T08:55:31;6.32;;;2.58;;
40152;SDS011;26371;56.992;23.912;2023-06-14T08:58:05;7.95;;;2.58;;
40152;SDS011;26371;56.992;23.912;2023-06-14T09:00:36;5.03;;;2.17;;
40152;SDS011;26371;56.992;23.912;2023-06-14T09:03:05;5.45;;;2.08;;
40152;SDS011;26371;56.992;23.912;2023-06-14T09:05:40;5.65;;;2.17;;
40152;SDS011;26371;56.992;23.912;2023-06-14T09:10:40;16.92;;;2.55;;
40152;SDS011;26371;56.992;23.912;2023-06-14T09:13:10;14.70;;;3.40;;
40152;SDS011;26371;56.992;23.912;2023-06-14T09:15:39;5.45;;;2.38;;
40152;SDS011;26371;56.992;23.912;2023-06-14T09:18:08;6.82;;;2.50;;
40152;SDS011;26371;56.992;23.912;2023-06-14T09:23:05;9.93;;;2.85;;
40152;SDS011;26371;56.992;23.912;2023-06-14T09:28:11;6.63;;;2.63;;
40152;SDS011;26371;56.992;23.912;2023-06-14T09:30:40;6.70;;;2.60;;
40152;SDS011;26371;56.992;23.912;2023-06-14T09:33:09;5.53;;;2.58;;
40152;SDS011;26371;56.992;23.912;2023-06-14T09:38:06;10.65;;;2.88;;
40152;SDS011;26371;56.992;23.912;2023-06-14T09:40:39;7.32;;;3.08;;
40152;SDS011;26371;56.992;23.912;2023-06-14T09:43:08;7.75;;;2.60;;
40152;SDS011;26371;56.992;23.912;2023-06-14T09:45:39;5.85;;;2.65;;
40152;SDS011;26371;56.992;23.912;2023-06-14T09:48:12;7.43;;;2.95;;
40152;SDS011;26371;56.992;23.912;2023-06-14T09:50:45;9.60;;;3.05;;
40152;SDS011;26371;56.992;23.912;2023-06-14T09:53:15;7.85;;;3.08;;
40152;SDS011;26371;56.992;23.912;2023-06-14T09:55:48;9.60;;;2.80;;
40152;SDS011;26371;56.992;23.912;2023-06-14T09:58:19;8.82;;;3.03;;
40152;SDS011;26371;56.992;23.912;2023-06-14T10:00:52;7.20;;;2.67;;
40152;SDS011;26371;56.992;23.912;2023-06-14T10:03:24;6.25;;;2.72;;
40152;SDS011;26371;56.992;23.912;2023-06-14T10:06:09;5.40;;;2.67;;
40152;SDS011;26371;56.992;23.912;2023-06-14T10:08:38;7.65;;;2.60;;
40152;SDS011;26371;56.992;23.912;2023-06-14T10:11:08;5.50;;;2.70;;
40152;SDS011;26371;56.992;23.912;2023-06-14T10:16:07;5.53;;;2.72;;
40152;SDS011;26371;56.992;23.912;2023-06-14T10:18:45;8.25;;;2.67;;
40152;SDS011;26371;56.992;23.912;2023-06-14T10:21:20;8.98;;;3.40;;
40152;SDS011;26371;56.992;23.912;2023-06-14T10:23:55;6.95;;;2.58;;
40152;SDS011;26371;56.992;23.912;2023-06-14T10:26:28;7.38;;;2.40;;
40152;SDS011;26371;56.992;23.912;2023-06-14T10:28:57;5.65;;;2.50;;
40152;SDS011;26371;56.992;23.912;2023-06-14T10:31:40;6.50;;;2.88;;
40152;SDS011;26371;56.992;23.912;2023-06-14T10:34:10;7.07;;;2.80;;
40152;SDS011;26371;56.992;23.912;2023-06-14T10:36:41;8.18;;;2.75;;
40152;SDS011;26371;56.992;23.912;2023-06-14T10:39:12;5.00;;;2.58;;
40152;SDS011;26371;56.992;23.912;2023-06-14T10:41:50;8.00;;;3.10;;
40152;SDS011;26371;56.992;23.912;2023-06-14T10:44:39;13.00;;;3.30;;
40152;SDS011;26371;56.992;23.912;2023-06-14T10:49:49;7.50;;;3.47;;
40152;SDS011;26371;56.992;23.912;2023-06-14T10:52:23;10.05;;;4.00;;
40152;SDS011;26371;56.992;23.912;2023-06-14T10:57:43;8.93;;;3.05;;
40152;SDS011;26371;56.992;23.912;2023-06-14T11:00:18;9.82;;;2.92;;
40152;SDS011;26371;56.992;23.912;2023-06-14T11:02:56;5.38;;;2.60;;
40152;SDS011;26371;56.992;23.912;2023-06-14T11:05:48;8.18;;;2.70;;
40152;SDS011;26371;56.992;23.912;2023-06-14T11:11:24;7.75;;;2.90;;
40152;SDS011;26371;56.992;23.912;2023-06-14T11:13:59;8.15;;;2.88;;
40152;SDS011;26371;56.992;23.912;2023-06-14T11:16:29;7.03;;;2.88;;
40152;SDS011;26371;56.992;23.912;2023-06-14T11:19:01;9.07;;;3.20;;
40152;SDS011;26371;56.992;23.912;2023-06-14T11:21:31;5.45;;;2.53;;
40152;SDS011;26371;56.992;23.912;2023-06-14T11:24:00;5.72;;;3.15;;
40152;SDS011;26371;56.992;23.912;2023-06-14T11:26:29;10.57;;;3.92;;
40152;SDS011;26371;56.992;23.912;2023-06-14T11:29:01;9.75;;;3.05;;
40152;SDS011;26371;56.992;23.912;2023-06-14T11:31:30;6.80;;;2.70;;
40152;SDS011;26371;56.992;23.912;2023-06-14T11:33:59;8.50;;;2.80;;
40152;SDS011;26371;56.992;23.912;2023-06-14T11:36:30;5.13;;;3.00;;
40152;SDS011;26371;56.992;23.912;2023-06-14T11:38:59;5.53;;;2.30;;
40152;SDS011;26371;56.992;23.912;2023-06-14T11:41:33;8.48;;;2.67;;
40152;SDS011;26371;56.992;23.912;2023-06-14T11:44:05;8.32;;;2.45;;
40152;SDS011;26371;56.992;23.912;2023-06-14T11:46:34;6.18;;;2.55;;
40152;SDS011;26371;56.992;23.912;2023-06-14T11:49:03;7.90;;;2.25;;
40152;SDS011;26371;56.992;23.912;2023-06-14T11:51:35;8.30;;;2.72;;
40152;SDS011;26371;56.992;23.912;2023-06-14T11:54:05;7.55;;;2.45;;
40152;SDS011;26371;56.992;23.912;2023-06-14T11:56:36;6.10;;;2.70;;
40152;SDS011;26371;56.992;23.912;2023-06-14T11:59:05;7.55;;;2.42;;
40152;SDS011;26371;56.992;23.912;2023-06-14T12:01:35;5.78;;;2.20;;
40152;SDS011;26371;56.992;23.912;2023-06-14T12:04:06;7.68;;;2.38;;
40152;SDS011;26371;56.992;23.912;2023-06-14T12:06:39;5.20;;;2.25;;
40152;SDS011;26371;56.992;23.912;2023-06-14T12:09:08;6.97;;;2.63;;
40152;SDS011;26371;56.992;23.912;2023-06-14T12:11:45;8.93;;;2.60;;
40152;SDS011;26371;56.992;23.912;2023-06-14T12:14:14;5.45;;;2.35;;
40152;SDS011;26371;56.992;23.912;2023-06-14T12:16:43;4.80;;;2.40;;
40152;SDS011;26371;56.992;23.912;2023-06-14T12:19:12;6.53;;;2.10;;
40152;SDS011;26371;56.992;23.912;2023-06-14T12:21:45;6.47;;;2.38;;
40152;SDS011;26371;56.992;23.912;2023-06-14T12:24:16;7.60;;;2.40;;
40152;SDS011;26371;56.992;23.912;2023-06-14T12:29:13;4.45;;;2.40;;
40152;SDS011;26371;56.992;23.912;2023-06-14T12:31:42;4.47;;;2.58;;
40152;SDS011;26371;56.992;23.912;2023-06-14T12:34:11;7.00;;;2.38;;
40152;SDS011;26371;56.992;23.912;2023-06-14T12:36:40;5.45;;;2.47;;
40152;SDS011;26371;56.992;23.912;2023-06-14T12:39:13;6.35;;;2.20;;
40152;SDS011;26371;56.992;23.912;2023-06-14T12:41:42;5.70;;;2.70;;
40152;SDS011;26371;56.992;23.912;2023-06-14T12:44:10;5.20;;;2.70;;
40152;SDS011;26371;56.992;23.912;2023-06-14T12:46:39;6.07;;;2.55;;
40152;SDS011;26371;56.992;23.912;2023-06-14T12:49:10;7.05;;;2.20;;
40152;SDS011;26371;56.992;23.912;2023-06-14T12:51:39;8.25;;;2.53;;
40152;SDS011;26371;56.992;23.912;2023-06-14T12:54:08;5.22;;;2.30;;
40152;SDS011;26371;56.992;23.912;2023-06-14T12:56:38;5.65;;;2.30;;
40152;SDS011;26371;56.992;23.912;2023-06-14T12:59:08;4.93;;;2.65;;
40152;SDS011;26371;56.992;23.912;2023-06-14T13:01:37;7.25;;;2.40;;
40152;SDS011;26371;56.992;23.912;2023-06-14T13:04:07;9.35;;;2.28;;
40152;SDS011;26371;56.992;23.912;2023-06-14T13:06:36;5.68;;;2.40;;
40152;SDS011;26371;56.992;23.912;2023-06-14T13:09:05;6.38;;;2.50;;
40152;SDS011;26371;56.992;23.912;2023-06-14T13:14:05;5.68;;;2.70;;
40152;SDS011;26371;56.992;23.912;2023-06-14T13:16:51;6.18;;;2.97;;
40152;SDS011;26371;56.992;23.912;2023-06-14T13:19:20;7.35;;;2.97;;
40152;SDS011;26371;56.992;23.912;2023-06-14T13:21:49;7.57;;;2.50;;
40152;SDS011;26371;56.992;23.912;2023-06-14T13:24:17;7.75;;;2.40;;
40152;SDS011;26371;56.992;23.912;2023-06-14T13:26:46;7.85;;;2.72;;
40152;SDS011;26371;56.992;23.912;2023-06-14T13:29:16;6.22;;;2.63;;
40152;SDS011;26371;56.992;23.912;2023-06-14T13:31:45;8.73;;;2.72;;
40152;SDS011;26371;56.992;23.912;2023-06-14T13:34:14;5.85;;;2.92;;
40152;SDS011;26371;56.992;23.912;2023-06-14T13:36:43;9.05;;;2.75;;
40152;SDS011;26371;56.992;23.912;2023-06-14T13:39:12;6.15;;;2.85;;
40152;SDS011;26371;56.992;23.912;2023-06-14T13:41:40;7.10;;;2.75;;
40152;SDS011;26371;56.992;23.912;2023-06-14T13:44:09;6.45;;;2.53;;
40152;SDS011;26371;56.992;23.912;2023-06-14T13:46:44;6.95;;;3.17;;
40152;SDS011;26371;56.992;23.912;2023-06-14T13:49:12;7.55;;;2.92;;
40152;SDS011;26371;56.992;23.912;2023-06-14T13:51:43;8.05;;;2.65;;
40152;SDS011;26371;56.992;23.912;2023-06-14T13:54:12;6.82;;;2.58;;
40152;SDS011;26371;56.992;23.912;2023-06-14T13:56:42;5.97;;;3.08;;
40152;SDS011;26371;56.992;23.912;2023-06-14T13:59:10;10.98;;;3.50;;
40152;SDS011;26371;56.992;23.912;2023-06-14T14:01:39;6.57;;;2.60;;
40152;SDS011;26371;56.992;23.912;2023-06-14T14:04:10;6.68;;;3.35;;
40152;SDS011;26371;56.992;23.912;2023-06-14T14:06:39;5.40;;;2.80;;
40152;SDS011;26371;56.992;23.912;2023-06-14T14:09:08;5.55;;;2.67;;
40152;SDS011;26371;56.992;23.912;2023-06-14T14:11:39;7.78;;;2.80;;
40152;SDS011;26371;56.992;23.912;2023-06-14T14:14:09;6.85;;;3.75;;
40152;SDS011;26371;56.992;23.912;2023-06-14T14:16:38;7.78;;;3.10;;
40152;SDS011;26371;56.992;23.912;2023-06-14T14:21:37;6.07;;;2.65;;
40152;SDS011;26371;56.992;23.912;2023-06-14T14:24:06;6.05;;;2.70;;
